createdAt,value
2018-12-15T00:00:06.811Z,20.07
2018-12-15T00:02:33.683Z,18.40
2018-12-15T00:05:01.297Z,18.67
2018-12-15T00:07:31.628Z,24.27
2018-12-15T00:10:03.515Z,21.53
2018-12-15T00:12:36.335Z,20.90
2018-12-15T00:15:21.975Z,20.37
2018-12-15T00:17:49.557Z,18.77
2018-12-15T00:20:18.479Z,19.00
2018-12-15T00:22:48.176Z,19.03
2018-12-15T00:25:15.400Z,23.07
2018-12-15T00:27:42.719Z,25.07
2018-12-15T00:30:12.337Z,24.03
2018-12-15T00:32:40.664Z,24.07
2018-12-15T00:35:07.733Z,18.47
2018-12-15T00:37:34.731Z,17.13
2018-12-15T00:40:02.296Z,19.57
2018-12-15T00:42:32.449Z,21.63
2018-12-15T00:44:59.450Z,19.40
2018-12-15T00:47:27.229Z,19.70
2018-12-15T00:49:54.711Z,16.70
2018-12-15T00:52:22.154Z,18.70
2018-12-15T00:54:49.491Z,18.10
2018-12-15T00:57:18.379Z,21.07
2018-12-15T00:59:46.101Z,23.37
2018-12-15T01:02:12.557Z,21.37
2018-12-15T01:04:38.812Z,20.30
2018-12-15T01:07:05.118Z,20.17
2018-12-15T01:09:31.399Z,22.53
2018-12-15T01:11:58.955Z,22.73
2018-12-15T01:14:26.063Z,20.23
2018-12-15T01:16:52.496Z,19.37
2018-12-15T01:19:20.616Z,21.20
2018-12-15T01:21:47.957Z,23.00
2018-12-15T01:24:16.182Z,24.23
2018-12-15T01:26:44.696Z,18.57
2018-12-15T01:29:12.864Z,19.10
2018-12-15T01:31:40.336Z,15.77
2018-12-15T01:34:07.542Z,17.57
2018-12-15T01:36:34.833Z,15.93
2018-12-15T01:39:05.694Z,18.62
2018-12-15T01:41:34.355Z,17.07
2018-12-15T01:44:01.902Z,19.40
2018-12-15T01:46:29.881Z,18.60
2018-12-15T01:48:58.064Z,19.60
2018-12-15T01:51:25.076Z,23.20
2018-12-15T01:53:52.500Z,18.80
2018-12-15T01:56:19.637Z,23.07
2018-12-15T01:58:48.431Z,21.87
2018-12-15T02:01:16.191Z,22.57
2018-12-15T02:03:43.985Z,18.23
2018-12-15T02:06:11.890Z,21.97
2018-12-15T02:08:39.868Z,16.53
2018-12-15T02:11:07.390Z,18.63
2018-12-15T02:13:34.532Z,14.53
2018-12-15T02:16:02.782Z,17.90
2018-12-15T02:18:32.700Z,26.20
2018-12-15T02:20:59.302Z,25.13
2018-12-15T02:23:27.202Z,24.50
2018-12-15T02:25:55.514Z,23.03
2018-12-15T02:28:23.312Z,25.53
2018-12-15T02:30:53.217Z,25.03
2018-12-15T02:33:21.806Z,21.87
2018-12-15T02:35:49.152Z,22.67
2018-12-15T02:38:18.256Z,20.43
2018-12-15T02:40:46.435Z,21.10
2018-12-15T02:43:13.292Z,21.63
2018-12-15T02:45:41.555Z,23.20
2018-12-15T02:48:12.091Z,21.50
2018-12-15T02:50:41.628Z,25.07
2018-12-15T02:53:09.962Z,20.87
2018-12-15T02:55:38.138Z,24.90
2018-12-15T02:58:07.051Z,22.90
2018-12-15T03:00:35.601Z,22.03
2018-12-15T03:03:02.922Z,23.50
2018-12-15T03:05:29.998Z,24.50
2018-12-15T03:07:57.081Z,22.80
2018-12-15T03:10:24.182Z,17.97
2018-12-15T03:12:51.832Z,22.53
2018-12-15T03:15:20.043Z,23.57
2018-12-15T03:17:48.975Z,20.47
2018-12-15T03:20:17.021Z,19.10
2018-12-15T03:22:44.257Z,16.97
2018-12-15T03:25:11.703Z,19.00
2018-12-15T03:27:38.854Z,16.60
2018-12-15T03:30:07.343Z,15.33
2018-12-15T03:32:33.738Z,15.87
2018-12-15T03:35:01.947Z,13.30
2018-12-15T03:37:28.320Z,13.17
2018-12-15T03:39:57.595Z,16.03
2018-12-15T03:42:25.529Z,17.87
2018-12-15T03:44:55.430Z,27.20
2018-12-15T03:47:23.351Z,25.80
2018-12-15T03:49:53.751Z,20.43
2018-12-15T03:52:21.958Z,17.80
2018-12-15T03:54:52.676Z,17.20
2018-12-15T03:57:20.768Z,19.82
2018-12-15T03:59:48.200Z,17.60
2018-12-15T04:02:16.147Z,15.20
2018-12-15T04:04:44.934Z,16.57
2018-12-15T04:07:12.837Z,21.30
2018-12-15T04:09:40.315Z,21.37
2018-12-15T04:12:08.463Z,19.10
2018-12-15T04:14:35.881Z,17.13
2018-12-15T04:17:02.954Z,16.83
2018-12-15T04:19:29.837Z,20.07
2018-12-15T04:22:05.087Z,25.80
2018-12-15T04:24:32.593Z,25.83
2018-12-15T04:27:02.788Z,22.93
2018-12-15T04:29:29.903Z,20.30
2018-12-15T04:31:57.086Z,17.47
2018-12-15T04:34:25.589Z,24.07
2018-12-15T04:36:52.550Z,25.87
2018-12-15T04:39:20.575Z,23.30
2018-12-15T04:41:49.998Z,19.80
2018-12-15T04:44:17.395Z,17.47
2018-12-15T04:46:45.164Z,16.33
2018-12-15T04:49:13.173Z,16.47
2018-12-15T04:51:40.676Z,14.80
2018-12-15T04:54:07.068Z,17.40
2018-12-15T04:56:33.389Z,17.17
2018-12-15T04:58:59.673Z,19.33
2018-12-15T05:01:25.942Z,18.13
2018-12-15T05:03:52.276Z,17.77
2018-12-15T05:06:18.549Z,15.90
2018-12-15T05:08:44.830Z,19.63
2018-12-15T05:11:11.125Z,19.23
2018-12-15T05:13:37.403Z,17.13
2018-12-15T05:16:03.657Z,16.47
2018-12-15T05:18:29.918Z,20.37
2018-12-15T05:20:56.193Z,25.53
2018-12-15T05:23:22.477Z,28.03
2018-12-15T05:25:48.758Z,27.37
2018-12-15T05:28:15.086Z,26.50
2018-12-15T05:30:41.366Z,24.80
2018-12-15T05:33:08.693Z,23.17
2018-12-15T05:35:35.629Z,18.83
2018-12-15T05:38:02.020Z,21.83
2018-12-15T05:40:29.580Z,25.30
2018-12-15T05:42:58.512Z,20.47
2018-12-15T05:45:24.985Z,22.37
2018-12-15T05:47:51.254Z,21.63
2018-12-15T05:50:18.755Z,25.57
2018-12-15T05:52:45.980Z,23.22
2018-12-15T05:55:14.708Z,22.67
2018-12-15T05:57:43.189Z,25.23
2018-12-15T06:00:11.974Z,25.20
2018-12-15T06:02:39.344Z,26.60
2018-12-15T06:05:06.711Z,26.03
2018-12-15T06:07:33.548Z,26.90
2018-12-15T06:10:04.660Z,25.57
2018-12-15T06:12:32.823Z,24.10
2018-12-15T06:15:02.837Z,23.50
2018-12-15T06:17:29.952Z,25.57
2018-12-15T06:19:57.968Z,25.13
2018-12-15T06:22:27.264Z,24.07
2018-12-15T06:24:56.667Z,25.47
2018-12-15T06:27:24.726Z,22.30
2018-12-15T06:29:53.611Z,20.87
2018-12-15T06:32:21.807Z,19.80
2018-12-15T06:34:50.299Z,20.67
2018-12-15T06:37:16.787Z,21.63
2018-12-15T06:39:43.066Z,23.17
2018-12-15T06:42:11.365Z,18.97
2018-12-15T06:44:38.563Z,23.83
2018-12-15T06:47:05.174Z,23.07
2018-12-15T06:49:31.872Z,25.27
2018-12-15T06:51:58.156Z,23.67
2018-12-15T06:54:24.442Z,22.23
2018-12-15T06:56:50.757Z,25.17
2018-12-15T06:59:17.095Z,22.97
2018-12-15T07:01:44.223Z,19.30
2018-12-15T07:04:10.869Z,22.20
2018-12-15T07:06:37.400Z,27.73
2018-12-15T07:09:05.135Z,21.77
2018-12-15T07:11:31.612Z,20.53
2018-12-15T07:13:58.187Z,22.27
2018-12-15T07:16:24.543Z,23.23
2018-12-15T07:18:50.995Z,23.43
2018-12-15T07:21:17.448Z,25.20
2018-12-15T07:23:43.982Z,25.67
2018-12-15T07:26:10.687Z,24.97
2018-12-15T07:28:43.603Z,21.87
2018-12-15T07:31:16.218Z,21.03
2018-12-15T07:33:48.708Z,25.73
2018-12-15T07:36:21.476Z,24.93
2018-12-15T07:38:56.405Z,25.63
2018-12-15T07:41:29.004Z,26.07
2018-12-15T07:49:53.082Z,23.37
2018-12-15T07:55:17.141Z,26.77
2018-12-15T07:57:49.409Z,24.13
2018-12-15T08:12:19.027Z,26.23
2018-12-15T08:14:52.259Z,23.73
2018-12-15T08:26:08.472Z,26.93
2018-12-15T08:28:56.072Z,27.00
2018-12-15T08:31:26.130Z,27.63
2018-12-15T08:36:48.704Z,27.87
2018-12-15T08:42:14.726Z,27.73
2018-12-15T08:44:44.949Z,26.97
2018-12-15T08:47:17.306Z,27.23
2018-12-15T08:52:45.193Z,27.57
2018-12-15T08:55:15.314Z,31.03
2018-12-15T09:03:37.922Z,25.80
2018-12-15T09:06:04.304Z,27.23
2018-12-15T09:08:37.251Z,27.53
2018-12-15T09:17:14.961Z,26.90
2018-12-15T09:25:32.952Z,25.47
2018-12-15T09:28:09.251Z,24.27
2018-12-15T09:30:35.547Z,27.53
2018-12-15T09:33:04.954Z,28.37
2018-12-15T09:35:37.261Z,25.43
2018-12-15T09:47:21.759Z,27.80
2018-12-15T09:49:48.182Z,24.87
2018-12-15T09:52:14.600Z,24.67
2018-12-15T09:54:48.681Z,26.10
2018-12-15T09:57:18.508Z,27.87
2018-12-15T09:59:44.959Z,35.27
2018-12-15T10:08:06.676Z,24.63
2018-12-15T10:10:34.421Z,24.57
2018-12-15T10:13:00.995Z,27.13
2018-12-15T10:15:27.313Z,25.80
2018-12-15T10:17:53.599Z,25.23
2018-12-15T10:20:26.343Z,24.70
2018-12-15T10:22:52.670Z,25.80
2018-12-15T10:25:19.067Z,30.43
2018-12-15T10:27:45.369Z,26.43
2018-12-15T10:30:17.830Z,24.90
2018-12-15T10:32:53.988Z,25.23
2018-12-15T10:35:20.824Z,25.67
2018-12-15T10:37:47.444Z,27.33
2018-12-15T10:40:13.834Z,25.43
2018-12-15T10:42:40.211Z,25.00
2018-12-15T10:48:01.884Z,24.93
2018-12-15T10:50:28.128Z,24.20
2018-12-15T10:52:54.344Z,21.47
2018-12-15T10:55:20.673Z,24.33
2018-12-15T10:57:46.954Z,24.33
2018-12-15T11:00:19.497Z,23.80
2018-12-15T11:02:47.206Z,22.53
2018-12-15T11:05:13.525Z,23.30
2018-12-15T11:07:40.865Z,23.00
2018-12-15T11:10:07.200Z,24.37
2018-12-15T11:12:33.536Z,23.23
2018-12-15T11:14:59.834Z,24.27
2018-12-15T11:17:26.127Z,23.97
2018-12-15T11:31:40.195Z,23.70
2018-12-15T11:34:06.490Z,25.50
2018-12-15T11:36:32.796Z,22.87
2018-12-15T11:39:00.183Z,30.37
2018-12-15T11:41:26.491Z,24.83
2018-12-15T11:43:52.816Z,23.17
2018-12-15T11:49:18.465Z,24.23
2018-12-15T11:51:46.851Z,24.07
2018-12-15T11:54:13.746Z,24.43
2018-12-15T11:56:42.095Z,24.90
2018-12-15T11:59:08.441Z,25.90
2018-12-15T12:01:34.741Z,22.57
2018-12-15T12:04:01.020Z,22.97
2018-12-15T12:06:27.838Z,23.60
2018-12-15T12:08:54.252Z,29.40
2018-12-15T12:11:20.520Z,27.50
2018-12-15T12:13:46.802Z,25.80
2018-12-15T12:16:13.060Z,26.67
2018-12-15T12:18:39.331Z,26.60
2018-12-15T12:21:05.670Z,25.80
2018-12-15T12:23:31.931Z,24.23
2018-12-15T12:25:59.065Z,27.97
2018-12-15T12:28:25.510Z,27.50
2018-12-15T12:30:51.957Z,27.57
2018-12-15T12:33:18.265Z,28.77
2018-12-15T12:35:44.571Z,26.97
2018-12-15T12:38:10.859Z,24.20
2018-12-15T12:40:37.287Z,26.37
2018-12-15T12:43:03.709Z,24.03
2018-12-15T12:45:30.062Z,24.73
2018-12-15T12:47:58.046Z,21.13
2018-12-15T12:50:25.476Z,28.90
2018-12-15T12:52:55.354Z,26.53
2018-12-15T12:55:21.794Z,25.30
2018-12-15T12:57:48.184Z,25.43
2018-12-15T13:00:14.560Z,20.07
2018-12-15T13:02:40.848Z,22.20
2018-12-15T13:05:07.422Z,22.13
2018-12-15T13:07:33.714Z,25.10
2018-12-15T13:10:00.026Z,22.50
2018-12-15T13:12:26.468Z,33.23
2018-12-15T13:14:53.245Z,24.40
2018-12-15T13:17:19.562Z,23.47
2018-12-15T13:19:46.011Z,23.20
2018-12-15T13:22:14.571Z,20.63
2018-12-15T13:24:41.164Z,21.77
2018-12-15T13:27:07.839Z,22.00
2018-12-15T13:29:34.320Z,22.00
2018-12-15T13:32:01.105Z,22.70
2018-12-15T13:34:27.761Z,21.23
2018-12-15T13:36:54.121Z,21.63
2018-12-15T13:39:20.478Z,21.73
2018-12-15T13:41:47.835Z,22.10
2018-12-15T13:44:14.203Z,23.47
2018-12-15T13:46:40.515Z,22.80
2018-12-15T13:49:06.816Z,24.27
2018-12-15T13:51:33.071Z,22.23
2018-12-15T13:53:59.412Z,24.40
2018-12-15T13:56:25.676Z,24.03
2018-12-15T13:58:51.971Z,23.43
2018-12-15T14:01:19.455Z,24.53
2018-12-15T14:03:45.836Z,25.83
2018-12-15T14:06:12.153Z,28.80
2018-12-15T14:08:38.402Z,23.17
2018-12-15T14:11:04.711Z,23.53
2018-12-15T14:13:30.940Z,25.20
2018-12-15T14:15:57.180Z,24.57
2018-12-15T14:18:23.485Z,26.80
2018-12-15T14:20:49.758Z,24.63
2018-12-15T14:23:16.137Z,23.33
2018-12-15T14:25:42.409Z,22.47
2018-12-15T14:28:08.682Z,24.20
2018-12-15T14:30:34.937Z,23.23
2018-12-15T14:33:01.204Z,22.43
2018-12-15T14:35:27.448Z,24.87
2018-12-15T14:37:53.717Z,24.97
2018-12-15T14:40:20.004Z,27.60
2018-12-15T14:42:46.274Z,23.60
2018-12-15T14:45:12.635Z,24.33
2018-12-15T14:47:38.892Z,26.40
2018-12-15T14:50:05.460Z,25.30
2018-12-15T14:52:31.713Z,21.97
2018-12-15T14:54:58.049Z,24.10
2018-12-15T14:57:24.296Z,24.07
2018-12-15T14:59:50.613Z,22.10
2018-12-15T15:02:16.929Z,22.33
2018-12-15T15:04:43.223Z,26.43
2018-12-15T15:07:09.799Z,25.87
2018-12-15T15:09:36.086Z,25.10
2018-12-15T15:12:02.358Z,24.73
2018-12-15T15:14:28.652Z,27.13
2018-12-15T15:16:54.988Z,26.17
2018-12-15T15:19:21.282Z,25.23
2018-12-15T15:21:48.720Z,24.97
2018-12-15T15:24:15.016Z,26.40
2018-12-15T15:26:41.406Z,26.73
2018-12-15T15:29:07.795Z,25.73
2018-12-15T15:31:34.392Z,29.07
2018-12-15T15:34:00.669Z,30.30
2018-12-15T15:36:27.984Z,26.50
2018-12-15T15:38:54.266Z,29.17
2018-12-15T15:41:20.625Z,25.50
2018-12-15T15:43:46.974Z,28.37
2018-12-15T15:46:14.609Z,28.30
2018-12-15T15:48:41.085Z,29.40
2018-12-15T15:51:07.344Z,25.37
2018-12-15T15:53:33.662Z,25.80
2018-12-15T15:56:01.091Z,31.10
2018-12-15T15:58:27.448Z,27.23
2018-12-15T16:00:53.841Z,24.00
2018-12-15T16:03:20.139Z,26.17
2018-12-15T16:05:46.463Z,25.63
2018-12-15T16:08:12.748Z,25.03
2018-12-15T16:10:40.413Z,25.70
2018-12-15T16:13:06.936Z,27.20
2018-12-15T16:15:33.230Z,25.17
2018-12-15T16:17:59.842Z,26.83
2018-12-15T16:20:26.190Z,29.20
2018-12-15T16:22:52.713Z,27.70
2018-12-15T16:25:19.157Z,27.20
2018-12-15T16:27:45.535Z,25.33
2018-12-15T16:30:12.931Z,27.33
2018-12-15T16:32:39.497Z,25.77
2018-12-15T16:35:06.089Z,26.30
2018-12-15T16:37:33.528Z,27.00
2018-12-15T16:39:59.876Z,26.23
2018-12-15T16:42:26.171Z,23.73
2018-12-15T16:44:52.502Z,29.80
2018-12-15T16:47:18.860Z,27.10
2018-12-15T16:49:45.156Z,26.40
2018-12-15T16:52:11.446Z,25.97
2018-12-15T16:54:37.768Z,27.57
2018-12-15T16:57:05.221Z,25.63
2018-12-15T16:59:31.499Z,25.43
2018-12-15T17:01:57.791Z,28.40
2018-12-15T17:04:25.117Z,30.07
2018-12-15T17:06:51.413Z,26.57
2018-12-15T17:09:17.726Z,25.00
2018-12-15T17:11:44.042Z,24.10
2018-12-15T17:14:10.349Z,26.77
2018-12-15T17:16:36.672Z,25.20
2018-12-15T17:19:03.214Z,25.47
2018-12-15T17:21:29.646Z,24.23
2018-12-15T17:23:55.950Z,25.53
2018-12-15T17:26:22.254Z,27.53
2018-12-15T17:28:48.607Z,26.07
2018-12-15T17:31:16.972Z,26.80
2018-12-15T17:33:43.268Z,23.47
2018-12-15T17:36:09.560Z,26.73
2018-12-15T17:38:35.862Z,24.63
2018-12-15T17:41:02.195Z,23.97
2018-12-15T17:43:28.509Z,24.30
2018-12-15T17:45:54.821Z,24.73
2018-12-15T17:48:21.177Z,25.90
2018-12-15T17:50:48.507Z,24.83
2018-12-15T17:53:15.009Z,23.53
2018-12-15T17:55:41.410Z,22.57
2018-12-15T17:58:07.706Z,23.97
2018-12-15T18:00:35.090Z,24.50
2018-12-15T18:03:01.377Z,26.07
2018-12-15T18:05:28.701Z,25.90
2018-12-15T18:07:54.962Z,22.40
2018-12-15T18:10:21.311Z,24.70
2018-12-15T18:12:47.631Z,24.17
2018-12-15T18:15:15.099Z,27.43
2018-12-15T18:17:41.685Z,24.87
2018-12-15T18:20:08.073Z,26.07
2018-12-15T18:22:34.313Z,29.40
2018-12-15T18:25:00.660Z,27.23
2018-12-15T18:27:26.984Z,22.93
2018-12-15T18:29:53.302Z,25.70
2018-12-15T18:32:19.598Z,25.60
2018-12-15T18:34:45.946Z,23.93
2018-12-15T18:37:13.319Z,23.30
2018-12-15T18:39:39.636Z,22.17
2018-12-15T18:42:10.901Z,24.07
2018-12-15T18:44:34.271Z,25.93
2018-12-15T18:47:00.720Z,24.97
2018-12-15T18:49:27.203Z,25.07
2018-12-15T18:51:53.551Z,20.77
2018-12-15T18:54:20.040Z,22.27
2018-12-15T18:56:46.615Z,25.23
2018-12-15T18:59:13.053Z,24.97
2018-12-15T19:01:39.410Z,21.90
2018-12-15T19:04:06.664Z,23.83
2018-12-15T19:06:33.036Z,26.00
2018-12-15T19:09:04.008Z,25.13
2018-12-15T19:11:27.730Z,21.77
2018-12-15T19:13:54.009Z,26.87
2018-12-15T19:16:20.312Z,22.00
2018-12-15T19:18:46.637Z,20.60
2018-12-15T19:21:12.932Z,19.77
2018-12-15T19:23:39.208Z,15.77
2018-12-15T19:26:05.870Z,16.13
2018-12-15T19:28:32.369Z,16.33
2018-12-15T19:30:58.740Z,15.07
2018-12-15T19:33:25.165Z,16.60
2018-12-15T19:35:51.549Z,23.70
2018-12-15T19:38:17.976Z,28.03
2018-12-15T19:40:44.401Z,28.90
2018-12-15T19:43:10.715Z,25.53
2018-12-15T19:45:36.976Z,24.53
2018-12-15T19:48:03.524Z,22.37
2018-12-15T19:50:29.782Z,22.73
2018-12-15T19:52:56.199Z,22.57
2018-12-15T19:55:23.604Z,26.73
2018-12-15T19:57:49.950Z,22.87
2018-12-15T20:00:16.340Z,23.63
2018-12-15T20:02:42.650Z,22.17
2018-12-15T20:05:08.949Z,18.07
2018-12-15T20:07:35.252Z,18.13
2018-12-15T20:10:01.759Z,18.47
2018-12-15T20:12:28.129Z,18.83
2018-12-15T20:14:54.493Z,18.63
2018-12-15T20:17:20.772Z,17.77
2018-12-15T20:19:47.033Z,16.93
2018-12-15T20:22:13.369Z,16.10
2018-12-15T20:24:39.580Z,15.53
2018-12-15T20:27:05.946Z,14.70
2018-12-15T20:29:34.392Z,14.63
2018-12-15T20:32:00.691Z,13.20
2018-12-15T20:34:27.060Z,11.67
2018-12-15T20:36:53.390Z,11.13
2018-12-15T20:39:19.705Z,14.03
2018-12-15T20:41:46.040Z,21.63
2018-12-15T20:44:12.318Z,21.80
2018-12-15T20:46:42.287Z,23.67
2018-12-15T20:49:08.788Z,28.43
2018-12-15T20:51:35.149Z,22.20
2018-12-15T20:54:25.048Z,20.97
2018-12-15T20:56:51.969Z,18.43
2018-12-15T20:59:19.351Z,18.77
2018-12-15T21:01:45.767Z,20.60
2018-12-15T21:04:24.601Z,20.43
2018-12-15T21:06:51.039Z,16.90
2018-12-15T21:09:17.329Z,18.37
2018-12-15T21:11:43.591Z,16.37
2018-12-15T21:14:10.099Z,21.60
2018-12-15T21:16:36.415Z,16.80
2018-12-15T21:19:02.757Z,19.53
2018-12-15T21:21:29.013Z,21.93
2018-12-15T21:23:55.288Z,28.27
2018-12-15T21:26:21.579Z,26.37
2018-12-15T21:28:47.888Z,26.13
2018-12-15T21:31:14.244Z,25.63
2018-12-15T21:33:40.515Z,24.47
2018-12-15T21:36:06.838Z,24.40
2018-12-15T21:38:33.099Z,19.57
2018-12-15T21:40:59.401Z,19.37
2018-12-15T21:43:25.698Z,17.60
2018-12-15T21:45:51.980Z,19.13
2018-12-15T21:48:18.228Z,18.37
2018-12-15T21:50:44.529Z,16.70
2018-12-15T21:53:10.849Z,19.33
2018-12-15T21:55:37.136Z,14.13
2018-12-15T21:58:03.467Z,12.43
2018-12-15T22:00:29.718Z,12.87
2018-12-15T22:02:56.000Z,11.33
2018-12-15T22:05:22.383Z,14.67
2018-12-15T22:07:48.692Z,15.73
2018-12-15T22:10:14.996Z,14.63
2018-12-15T22:12:41.487Z,15.73
2018-12-15T22:15:08.098Z,17.20
2018-12-15T22:17:34.381Z,16.77
2018-12-15T22:20:00.676Z,19.30
2018-12-15T22:22:26.943Z,17.33
2018-12-15T22:24:53.258Z,17.47
2018-12-15T22:27:19.592Z,16.83
2018-12-15T22:29:45.953Z,15.60
2018-12-15T22:32:12.701Z,16.90
2018-12-15T22:34:38.980Z,14.63
2018-12-15T22:37:05.285Z,15.67
2018-12-15T22:39:31.643Z,13.70
2018-12-15T22:41:57.980Z,15.03
2018-12-15T22:44:24.245Z,14.23
2018-12-15T22:46:50.513Z,16.13
2018-12-15T22:49:16.814Z,20.90
2018-12-15T22:51:43.132Z,20.57
2018-12-15T22:54:09.444Z,23.33
2018-12-15T22:56:35.880Z,21.87
2018-12-15T22:59:02.171Z,21.27
2018-12-15T23:01:30.466Z,22.50
2018-12-15T23:03:56.835Z,21.43
2018-12-15T23:06:23.194Z,23.33
2018-12-15T23:08:49.624Z,21.10
2018-12-15T23:11:15.988Z,20.33
2018-12-15T23:13:42.294Z,29.53
2018-12-15T23:16:08.593Z,24.50
2018-12-15T23:18:34.858Z,21.63
2018-12-15T23:21:01.156Z,19.83
2018-12-15T23:23:27.454Z,21.70
2018-12-15T23:25:53.777Z,21.53
2018-12-15T23:28:20.061Z,25.03
2018-12-15T23:30:46.407Z,23.83
2018-12-15T23:33:12.698Z,20.77
2018-12-15T23:35:39.034Z,26.97
2018-12-15T23:38:05.367Z,28.77
2018-12-15T23:40:31.638Z,27.43
2018-12-15T23:42:57.926Z,24.20
2018-12-15T23:45:24.292Z,22.50
2018-12-15T23:47:50.581Z,19.80
2018-12-15T23:50:16.967Z,23.53
2018-12-15T23:52:43.226Z,22.53
2018-12-15T23:55:09.532Z,29.93
2018-12-15T23:57:35.849Z,28.13
